Sao Domingos, Brazil
Current Conditions -  °F | °C
As of 5:00 AM on Friday 31 Oct 2014 (Local Time) from SBCH Reporting Station
Moderate Fog Moderate Fog  
Wind Chill: 63°   Ceiling: 100
Heat Index: 63°   Visibility: 0.12mi
Dew Point: 63°   Wind: 7mph
Humidity: 100%   Direction: 80°E
Pressure: 29.88"   Gusts: NA
Location:  26.56°S, 52.53°W
Report Text: SBCH 310700Z 08006KT 0200 FG BKN001 17/17 Q1012
Loading
Personal Weather Stations






























Interactive Weather Map
Tropical Storm Tracking
New forecast layout! Learn more

10-Day Weather Forecast

Advertisements
Track Severe Weather on mobile